Terminal Aerodrome Forecast
Issued by NWS

Current Version | Previous Version | Text Only | Print | Product List | Glossary Off
Versions: 1 2 3 4 5 6 7 8 9 10 11 12 13 14 15 16 17 18 19

499
FTUS41 KPBZ 220526
TAFHLG
TAF
KHLG 220526Z 2206/2306 19006KT P6SM BKN250
     FM221800 25008KT P6SM VCTS BKN060CB
     FM230300 24005KT P6SM SCT070=

USA.gov is the U.S. government's official web portal to all federal, state and local government web resources and services.